sensor_id;sensor_type;location;lat;lon;timestamp;P1;durP1;ratioP1;P2;durP2;ratioP2
71558;SDS011;59382;43.852;25.952;2024-01-06T00:01:45;19.70;;;10.23;;
71558;SDS011;59382;43.852;25.952;2024-01-06T00:04:11;22.73;;;11.32;;
71558;SDS011;59382;43.852;25.952;2024-01-06T00:06:36;23.70;;;11.38;;
71558;SDS011;59382;43.852;25.952;2024-01-06T00:09:02;21.67;;;11.70;;
71558;SDS011;59382;43.852;25.952;2024-01-06T00:11:28;22.38;;;10.82;;
71558;SDS011;59382;43.852;25.952;2024-01-06T00:13:53;22.42;;;10.35;;
71558;SDS011;59382;43.852;25.952;2024-01-06T00:16:19;12.35;;;7.95;;
71558;SDS011;59382;43.852;25.952;2024-01-06T00:18:45;11.57;;;6.90;;
71558;SDS011;59382;43.852;25.952;2024-01-06T00:21:12;10.65;;;6.15;;
71558;SDS011;59382;43.852;25.952;2024-01-06T00:23:37;13.85;;;5.43;;
71558;SDS011;59382;43.852;25.952;2024-01-06T00:26:05;8.98;;;6.07;;
71558;SDS011;59382;43.852;25.952;2024-01-06T00:28:30;9.35;;;4.85;;
71558;SDS011;59382;43.852;25.952;2024-01-06T00:30:56;13.27;;;5.55;;
71558;SDS011;59382;43.852;25.952;2024-01-06T00:33:22;6.43;;;4.63;;
71558;SDS011;59382;43.852;25.952;2024-01-06T00:35:48;9.77;;;4.75;;
71558;SDS011;59382;43.852;25.952;2024-01-06T00:38:14;7.95;;;4.45;;
71558;SDS011;59382;43.852;25.952;2024-01-06T00:40:39;10.02;;;5.15;;
71558;SDS011;59382;43.852;25.952;2024-01-06T00:43:05;7.97;;;3.70;;
71558;SDS011;59382;43.852;25.952;2024-01-06T00:45:30;7.80;;;4.75;;
71558;SDS011;59382;43.852;25.952;2024-01-06T00:47:56;8.18;;;4.43;;
71558;SDS011;59382;43.852;25.952;2024-01-06T00:50:22;10.68;;;4.90;;
71558;SDS011;59382;43.852;25.952;2024-01-06T00:52:48;7.50;;;4.90;;
71558;SDS011;59382;43.852;25.952;2024-01-06T00:55:17;11.32;;;6.95;;
71558;SDS011;59382;43.852;25.952;2024-01-06T00:57:46;13.68;;;6.30;;
71558;SDS011;59382;43.852;25.952;2024-01-06T01:00:13;10.93;;;5.65;;
71558;SDS011;59382;43.852;25.952;2024-01-06T01:02:39;13.15;;;6.22;;
71558;SDS011;59382;43.852;25.952;2024-01-06T01:05:05;11.90;;;6.22;;
71558;SDS011;59382;43.852;25.952;2024-01-06T01:07:34;11.85;;;5.90;;
71558;SDS011;59382;43.852;25.952;2024-01-06T01:10:00;11.48;;;5.93;;
71558;SDS011;59382;43.852;25.952;2024-01-06T01:12:25;10.60;;;5.43;;
71558;SDS011;59382;43.852;25.952;2024-01-06T01:14:51;13.50;;;5.15;;
71558;SDS011;59382;43.852;25.952;2024-01-06T01:17:18;9.52;;;4.93;;
71558;SDS011;59382;43.852;25.952;2024-01-06T01:19:45;8.45;;;4.72;;
71558;SDS011;59382;43.852;25.952;2024-01-06T01:22:11;10.20;;;4.65;;
71558;SDS011;59382;43.852;25.952;2024-01-06T01:24:37;7.10;;;4.10;;
71558;SDS011;59382;43.852;25.952;2024-01-06T01:27:02;5.50;;;3.70;;
71558;SDS011;59382;43.852;25.952;2024-01-06T01:29:29;7.57;;;3.97;;
71558;SDS011;59382;43.852;25.952;2024-01-06T01:31:55;8.68;;;3.97;;
71558;SDS011;59382;43.852;25.952;2024-01-06T01:34:20;4.47;;;3.40;;
71558;SDS011;59382;43.852;25.952;2024-01-06T01:36:46;6.30;;;3.38;;
71558;SDS011;59382;43.852;25.952;2024-01-06T01:39:11;3.53;;;2.95;;
71558;SDS011;59382;43.852;25.952;2024-01-06T01:41:37;6.07;;;2.78;;
71558;SDS011;59382;43.852;25.952;2024-01-06T01:44:02;4.57;;;2.88;;
71558;SDS011;59382;43.852;25.952;2024-01-06T01:46:28;6.50;;;3.65;;
71558;SDS011;59382;43.852;25.952;2024-01-06T01:48:55;6.78;;;3.38;;
71558;SDS011;59382;43.852;25.952;2024-01-06T01:51:23;6.93;;;2.90;;
71558;SDS011;59382;43.852;25.952;2024-01-06T01:53:52;4.07;;;2.97;;
71558;SDS011;59382;43.852;25.952;2024-01-06T01:56:19;11.52;;;3.33;;
71558;SDS011;59382;43.852;25.952;2024-01-06T01:58:45;7.72;;;2.85;;
71558;SDS011;59382;43.852;25.952;2024-01-06T02:01:11;2.85;;;2.63;;
71558;SDS011;59382;43.852;25.952;2024-01-06T02:03:38;4.68;;;2.78;;
71558;SDS011;59382;43.852;25.952;2024-01-06T02:06:06;5.43;;;3.08;;
71558;SDS011;59382;43.852;25.952;2024-01-06T02:08:32;7.82;;;2.58;;
71558;SDS011;59382;43.852;25.952;2024-01-06T02:10:57;7.43;;;3.05;;
71558;SDS011;59382;43.852;25.952;2024-01-06T02:13:23;4.45;;;3.17;;
71558;SDS011;59382;43.852;25.952;2024-01-06T02:15:49;6.03;;;3.17;;
71558;SDS011;59382;43.852;25.952;2024-01-06T02:18:15;4.43;;;2.90;;
71558;SDS011;59382;43.852;25.952;2024-01-06T02:20:42;4.57;;;3.38;;
71558;SDS011;59382;43.852;25.952;2024-01-06T02:23:09;5.20;;;2.95;;
71558;SDS011;59382;43.852;25.952;2024-01-06T02:25:35;4.50;;;2.65;;
71558;SDS011;59382;43.852;25.952;2024-01-06T02:28:01;6.20;;;2.95;;
71558;SDS011;59382;43.852;25.952;2024-01-06T02:30:26;4.95;;;2.67;;
71558;SDS011;59382;43.852;25.952;2024-01-06T02:32:52;3.80;;;2.90;;
71558;SDS011;59382;43.852;25.952;2024-01-06T02:35:20;4.00;;;2.83;;
71558;SDS011;59382;43.852;25.952;2024-01-06T02:37:46;3.60;;;2.60;;
71558;SDS011;59382;43.852;25.952;2024-01-06T02:40:11;3.90;;;2.78;;
71558;SDS011;59382;43.852;25.952;2024-01-06T02:42:38;5.30;;;3.00;;
71558;SDS011;59382;43.852;25.952;2024-01-06T02:45:04;6.82;;;2.97;;
71558;SDS011;59382;43.852;25.952;2024-01-06T02:47:29;6.18;;;3.10;;
71558;SDS011;59382;43.852;25.952;2024-01-06T02:49:55;4.47;;;3.20;;
71558;SDS011;59382;43.852;25.952;2024-01-06T02:52:20;4.55;;;2.83;;
71558;SDS011;59382;43.852;25.952;2024-01-06T02:54:47;4.80;;;2.58;;
71558;SDS011;59382;43.852;25.952;2024-01-06T02:57:13;5.32;;;3.08;;
71558;SDS011;59382;43.852;25.952;2024-01-06T02:59:39;3.72;;;2.20;;
71558;SDS011;59382;43.852;25.952;2024-01-06T03:02:04;7.13;;;2.65;;
71558;SDS011;59382;43.852;25.952;2024-01-06T03:04:30;6.00;;;3.42;;
71558;SDS011;59382;43.852;25.952;2024-01-06T03:06:55;4.32;;;2.83;;
71558;SDS011;59382;43.852;25.952;2024-01-06T03:09:21;5.43;;;2.88;;
71558;SDS011;59382;43.852;25.952;2024-01-06T03:11:46;6.68;;;2.78;;
71558;SDS011;59382;43.852;25.952;2024-01-06T03:14:12;5.07;;;2.90;;
71558;SDS011;59382;43.852;25.952;2024-01-06T03:16:37;3.38;;;2.55;;
71558;SDS011;59382;43.852;25.952;2024-01-06T03:19:03;3.53;;;2.40;;
71558;SDS011;59382;43.852;25.952;2024-01-06T03:21:28;5.45;;;2.70;;
71558;SDS011;59382;43.852;25.952;2024-01-06T03:23:54;4.22;;;2.53;;
71558;SDS011;59382;43.852;25.952;2024-01-06T03:26:20;5.18;;;2.83;;
71558;SDS011;59382;43.852;25.952;2024-01-06T03:28:47;3.92;;;2.53;;
71558;SDS011;59382;43.852;25.952;2024-01-06T03:31:14;6.47;;;2.72;;
71558;SDS011;59382;43.852;25.952;2024-01-06T03:33:40;3.30;;;2.33;;
71558;SDS011;59382;43.852;25.952;2024-01-06T03:36:06;7.03;;;2.78;;
71558;SDS011;59382;43.852;25.952;2024-01-06T03:38:34;4.25;;;2.40;;
71558;SDS011;59382;43.852;25.952;2024-01-06T03:41:00;4.28;;;2.75;;
71558;SDS011;59382;43.852;25.952;2024-01-06T03:43:26;5.15;;;3.38;;
71558;SDS011;59382;43.852;25.952;2024-01-06T03:45:51;4.43;;;3.33;;
71558;SDS011;59382;43.852;25.952;2024-01-06T03:48:17;4.38;;;3.25;;
71558;SDS011;59382;43.852;25.952;2024-01-06T03:50:42;7.13;;;3.50;;
71558;SDS011;59382;43.852;25.952;2024-01-06T03:53:08;6.47;;;3.70;;
71558;SDS011;59382;43.852;25.952;2024-01-06T03:55:33;4.00;;;3.25;;
71558;SDS011;59382;43.852;25.952;2024-01-06T03:57:59;4.95;;;2.83;;
71558;SDS011;59382;43.852;25.952;2024-01-06T04:00:25;6.75;;;3.08;;
71558;SDS011;59382;43.852;25.952;2024-01-06T04:02:53;4.15;;;2.90;;
71558;SDS011;59382;43.852;25.952;2024-01-06T04:05:18;4.00;;;3.05;;
71558;SDS011;59382;43.852;25.952;2024-01-06T04:07:44;7.53;;;3.15;;
71558;SDS011;59382;43.852;25.952;2024-01-06T04:10:09;5.78;;;2.92;;
71558;SDS011;59382;43.852;25.952;2024-01-06T04:12:35;3.72;;;2.90;;
71558;SDS011;59382;43.852;25.952;2024-01-06T04:15:01;4.63;;;3.25;;
71558;SDS011;59382;43.852;25.952;2024-01-06T04:17:26;4.10;;;3.15;;
71558;SDS011;59382;43.852;25.952;2024-01-06T04:19:52;3.92;;;2.92;;
71558;SDS011;59382;43.852;25.952;2024-01-06T04:22:18;6.07;;;3.45;;
71558;SDS011;59382;43.852;25.952;2024-01-06T04:24:44;10.23;;;3.50;;
71558;SDS011;59382;43.852;25.952;2024-01-06T04:27:09;6.70;;;3.75;;
71558;SDS011;59382;43.852;25.952;2024-01-06T04:29:35;5.53;;;3.38;;
71558;SDS011;59382;43.852;25.952;2024-01-06T04:32:00;5.72;;;3.50;;
71558;SDS011;59382;43.852;25.952;2024-01-06T04:34:26;4.93;;;2.85;;
71558;SDS011;59382;43.852;25.952;2024-01-06T04:36:51;5.95;;;3.35;;
71558;SDS011;59382;43.852;25.952;2024-01-06T04:39:17;10.73;;;4.15;;
71558;SDS011;59382;43.852;25.952;2024-01-06T04:41:43;9.57;;;4.60;;
71558;SDS011;59382;43.852;25.952;2024-01-06T04:44:08;8.32;;;4.63;;
71558;SDS011;59382;43.852;25.952;2024-01-06T04:46:34;11.13;;;3.85;;
71558;SDS011;59382;43.852;25.952;2024-01-06T04:48:59;9.82;;;3.85;;
71558;SDS011;59382;43.852;25.952;2024-01-06T04:51:25;5.68;;;3.40;;
71558;SDS011;59382;43.852;25.952;2024-01-06T04:53:50;4.05;;;3.00;;
71558;SDS011;59382;43.852;25.952;2024-01-06T04:56:16;12.55;;;3.22;;
71558;SDS011;59382;43.852;25.952;2024-01-06T04:58:41;4.03;;;2.80;;
71558;SDS011;59382;43.852;25.952;2024-01-06T05:01:07;7.65;;;3.03;;
71558;SDS011;59382;43.852;25.952;2024-01-06T05:03:33;3.95;;;2.30;;
71558;SDS011;59382;43.852;25.952;2024-01-06T05:05:58;5.32;;;2.90;;
71558;SDS011;59382;43.852;25.952;2024-01-06T05:08:24;5.40;;;2.33;;
71558;SDS011;59382;43.852;25.952;2024-01-06T05:10:51;4.30;;;2.35;;
71558;SDS011;59382;43.852;25.952;2024-01-06T05:13:17;5.20;;;2.75;;
71558;SDS011;59382;43.852;25.952;2024-01-06T05:15:43;5.30;;;3.47;;
71558;SDS011;59382;43.852;25.952;2024-01-06T05:18:09;4.57;;;2.90;;
71558;SDS011;59382;43.852;25.952;2024-01-06T05:20:34;5.35;;;2.58;;
71558;SDS011;59382;43.852;25.952;2024-01-06T05:22:59;5.85;;;2.67;;
71558;SDS011;59382;43.852;25.952;2024-01-06T05:25:25;3.53;;;2.40;;
71558;SDS011;59382;43.852;25.952;2024-01-06T05:27:51;6.82;;;3.33;;
71558;SDS011;59382;43.852;25.952;2024-01-06T05:30:17;6.20;;;3.03;;
71558;SDS011;59382;43.852;25.952;2024-01-06T05:32:43;3.25;;;2.78;;
71558;SDS011;59382;43.852;25.952;2024-01-06T05:35:08;4.88;;;2.92;;
71558;SDS011;59382;43.852;25.952;2024-01-06T05:37:34;6.50;;;3.47;;
71558;SDS011;59382;43.852;25.952;2024-01-06T05:40:00;5.20;;;3.20;;
71558;SDS011;59382;43.852;25.952;2024-01-06T05:42:29;12.68;;;3.28;;
71558;SDS011;59382;43.852;25.952;2024-01-06T05:44:54;4.82;;;2.90;;
71558;SDS011;59382;43.852;25.952;2024-01-06T05:47:20;8.80;;;3.10;;
71558;SDS011;59382;43.852;25.952;2024-01-06T05:49:46;5.88;;;3.10;;
71558;SDS011;59382;43.852;25.952;2024-01-06T05:52:11;6.97;;;2.97;;
71558;SDS011;59382;43.852;25.952;2024-01-06T05:54:40;7.20;;;3.15;;
71558;SDS011;59382;43.852;25.952;2024-01-06T05:57:07;4.72;;;3.15;;
71558;SDS011;59382;43.852;25.952;2024-01-06T05:59:33;3.88;;;3.25;;
71558;SDS011;59382;43.852;25.952;2024-01-06T06:01:59;6.07;;;3.47;;
71558;SDS011;59382;43.852;25.952;2024-01-06T06:04:25;3.88;;;3.28;;
71558;SDS011;59382;43.852;25.952;2024-01-06T06:06:50;5.60;;;3.10;;
71558;SDS011;59382;43.852;25.952;2024-01-06T06:09:16;7.15;;;3.92;;
71558;SDS011;59382;43.852;25.952;2024-01-06T06:11:41;7.00;;;3.45;;
71558;SDS011;59382;43.852;25.952;2024-01-06T06:14:08;5.00;;;3.17;;
71558;SDS011;59382;43.852;25.952;2024-01-06T06:16:34;7.28;;;3.47;;
71558;SDS011;59382;43.852;25.952;2024-01-06T06:18:59;7.60;;;4.15;;
71558;SDS011;59382;43.852;25.952;2024-01-06T06:21:25;8.95;;;4.07;;
71558;SDS011;59382;43.852;25.952;2024-01-06T06:23:50;7.35;;;4.38;;
71558;SDS011;59382;43.852;25.952;2024-01-06T06:26:16;7.28;;;4.30;;
71558;SDS011;59382;43.852;25.952;2024-01-06T06:28:42;13.93;;;5.53;;
71558;SDS011;59382;43.852;25.952;2024-01-06T06:31:07;9.68;;;5.78;;
71558;SDS011;59382;43.852;25.952;2024-01-06T06:33:33;7.05;;;4.38;;
71558;SDS011;59382;43.852;25.952;2024-01-06T06:35:58;7.80;;;4.55;;
71558;SDS011;59382;43.852;25.952;2024-01-06T06:38:27;29.50;;;9.75;;
71558;SDS011;59382;43.852;25.952;2024-01-06T06:40:53;33.28;;;12.20;;
71558;SDS011;59382;43.852;25.952;2024-01-06T06:43:18;35.08;;;10.18;;
71558;SDS011;59382;43.852;25.952;2024-01-06T06:45:44;39.00;;;12.82;;
71558;SDS011;59382;43.852;25.952;2024-01-06T06:48:09;32.88;;;8.65;;
71558;SDS011;59382;43.852;25.952;2024-01-06T06:50:35;17.92;;;6.75;;
71558;SDS011;59382;43.852;25.952;2024-01-06T06:53:01;46.50;;;12.15;;
71558;SDS011;59382;43.852;25.952;2024-01-06T06:55:26;22.00;;;7.13;;
71558;SDS011;59382;43.852;25.952;2024-01-06T06:57:52;13.80;;;5.80;;
71558;SDS011;59382;43.852;25.952;2024-01-06T07:00:18;15.38;;;5.28;;
71558;SDS011;59382;43.852;25.952;2024-01-06T07:02:45;13.50;;;4.88;;
71558;SDS011;59382;43.852;25.952;2024-01-06T07:05:10;16.80;;;4.65;;
71558;SDS011;59382;43.852;25.952;2024-01-06T07:07:36;11.23;;;4.00;;
71558;SDS011;59382;43.852;25.952;2024-01-06T07:10:04;5.88;;;3.83;;
71558;SDS011;59382;43.852;25.952;2024-01-06T07:12:31;6.90;;;3.97;;
71558;SDS011;59382;43.852;25.952;2024-01-06T07:14:57;6.53;;;4.68;;
71558;SDS011;59382;43.852;25.952;2024-01-06T07:17:24;11.90;;;4.68;;
71558;SDS011;59382;43.852;25.952;2024-01-06T07:19:50;5.20;;;3.63;;
71558;SDS011;59382;43.852;25.952;2024-01-06T07:22:19;4.38;;;3.30;;
71558;SDS011;59382;43.852;25.952;2024-01-06T07:24:44;7.45;;;3.72;;
71558;SDS011;59382;43.852;25.952;2024-01-06T07:27:10;5.90;;;4.30;;
71558;SDS011;59382;43.852;25.952;2024-01-06T07:29:35;5.65;;;3.85;;
71558;SDS011;59382;43.852;25.952;2024-01-06T07:32:03;19.90;;;6.50;;
71558;SDS011;59382;43.852;25.952;2024-01-06T07:34:31;23.80;;;7.18;;
71558;SDS011;59382;43.852;25.952;2024-01-06T07:36:57;11.18;;;5.43;;
71558;SDS011;59382;43.852;25.952;2024-01-06T07:39:28;9.18;;;4.90;;
71558;SDS011;59382;43.852;25.952;2024-01-06T07:41:53;7.80;;;4.28;;
71558;SDS011;59382;43.852;25.952;2024-01-06T07:44:19;5.40;;;4.13;;
71558;SDS011;59382;43.852;25.952;2024-01-06T07:46:49;5.75;;;3.65;;
71558;SDS011;59382;43.852;25.952;2024-01-06T07:49:18;8.45;;;4.43;;
71558;SDS011;59382;43.852;25.952;2024-01-06T07:51:45;4.25;;;3.45;;
71558;SDS011;59382;43.852;25.952;2024-01-06T07:54:11;13.75;;;5.07;;
71558;SDS011;59382;43.852;25.952;2024-01-06T07:56:37;10.23;;;5.05;;
71558;SDS011;59382;43.852;25.952;2024-01-06T07:59:03;10.75;;;4.80;;
71558;SDS011;59382;43.852;25.952;2024-01-06T08:01:29;11.65;;;5.82;;
71558;SDS011;59382;43.852;25.952;2024-01-06T08:03:55;10.50;;;5.60;;
71558;SDS011;59382;43.852;25.952;2024-01-06T08:06:20;12.05;;;5.90;;
71558;SDS011;59382;43.852;25.952;2024-01-06T08:08:46;6.47;;;3.65;;
71558;SDS011;59382;43.852;25.952;2024-01-06T08:11:12;9.48;;;4.43;;
71558;SDS011;59382;43.852;25.952;2024-01-06T08:13:40;11.05;;;4.97;;
71558;SDS011;59382;43.852;25.952;2024-01-06T08:16:06;5.13;;;3.85;;
71558;SDS011;59382;43.852;25.952;2024-01-06T08:18:31;8.45;;;3.95;;
71558;SDS011;59382;43.852;25.952;2024-01-06T08:20:57;10.13;;;4.38;;
71558;SDS011;59382;43.852;25.952;2024-01-06T08:23:23;8.95;;;5.05;;
71558;SDS011;59382;43.852;25.952;2024-01-06T08:25:48;10.10;;;6.45;;
71558;SDS011;59382;43.852;25.952;2024-01-06T08:28:14;11.02;;;5.85;;
71558;SDS011;59382;43.852;25.952;2024-01-06T08:30:40;8.20;;;4.95;;
71558;SDS011;59382;43.852;25.952;2024-01-06T08:33:06;11.68;;;5.28;;
71558;SDS011;59382;43.852;25.952;2024-01-06T08:35:31;9.35;;;5.40;;
71558;SDS011;59382;43.852;25.952;2024-01-06T08:37:57;10.77;;;5.05;;
71558;SDS011;59382;43.852;25.952;2024-01-06T08:40:22;10.55;;;5.13;;
71558;SDS011;59382;43.852;25.952;2024-01-06T08:42:48;19.60;;;6.70;;
71558;SDS011;59382;43.852;25.952;2024-01-06T08:45:14;18.95;;;6.85;;
71558;SDS011;59382;43.852;25.952;2024-01-06T08:47:39;21.67;;;8.02;;
71558;SDS011;59382;43.852;25.952;2024-01-06T08:50:05;17.63;;;7.43;;
71558;SDS011;59382;43.852;25.952;2024-01-06T08:52:31;17.88;;;7.55;;
71558;SDS011;59382;43.852;25.952;2024-01-06T08:54:57;16.98;;;7.13;;
71558;SDS011;59382;43.852;25.952;2024-01-06T08:57:22;11.45;;;6.22;;
71558;SDS011;59382;43.852;25.952;2024-01-06T08:59:48;12.68;;;6.13;;
71558;SDS011;59382;43.852;25.952;2024-01-06T09:02:13;12.25;;;5.70;;
71558;SDS011;59382;43.852;25.952;2024-01-06T09:04:39;8.52;;;5.30;;
71558;SDS011;59382;43.852;25.952;2024-01-06T09:07:04;9.15;;;5.07;;
71558;SDS011;59382;43.852;25.952;2024-01-06T09:09:30;10.00;;;5.30;;
71558;SDS011;59382;43.852;25.952;2024-01-06T09:11:56;10.65;;;6.30;;
71558;SDS011;59382;43.852;25.952;2024-01-06T09:14:21;12.07;;;5.57;;
71558;SDS011;59382;43.852;25.952;2024-01-06T09:16:46;11.02;;;5.15;;
71558;SDS011;59382;43.852;25.952;2024-01-06T09:19:13;15.13;;;7.25;;
71558;SDS011;59382;43.852;25.952;2024-01-06T09:21:39;8.95;;;7.00;;
71558;SDS011;59382;43.852;25.952;2024-01-06T09:24:05;10.23;;;7.13;;
71558;SDS011;59382;43.852;25.952;2024-01-06T09:26:32;12.40;;;6.47;;
71558;SDS011;59382;43.852;25.952;2024-01-06T09:29:01;8.88;;;6.07;;
71558;SDS011;59382;43.852;25.952;2024-01-06T09:31:27;11.95;;;5.85;;
71558;SDS011;59382;43.852;25.952;2024-01-06T09:33:54;11.85;;;6.30;;
71558;SDS011;59382;43.852;25.952;2024-01-06T09:36:23;7.97;;;5.90;;
71558;SDS011;59382;43.852;25.952;2024-01-06T09:38:48;10.82;;;5.70;;
71558;SDS011;59382;43.852;25.952;2024-01-06T09:41:14;10.70;;;6.55;;
71558;SDS011;59382;43.852;25.952;2024-01-06T09:43:39;12.32;;;7.18;;
71558;SDS011;59382;43.852;25.952;2024-01-06T09:46:38;9.63;;;6.55;;
71558;SDS011;59382;43.852;25.952;2024-01-06T09:48:57;14.35;;;6.70;;
71558;SDS011;59382;43.852;25.952;2024-01-06T09:51:23;18.15;;;8.40;;
71558;SDS011;59382;43.852;25.952;2024-01-06T09:56:20;11.70;;;7.40;;
71558;SDS011;59382;43.852;25.952;2024-01-06T09:58:46;22.60;;;8.55;;
71558;SDS011;59382;43.852;25.952;2024-01-06T10:01:12;15.07;;;8.55;;
71558;SDS011;59382;43.852;25.952;2024-01-06T10:03:40;15.95;;;7.20;;
71558;SDS011;59382;43.852;25.952;2024-01-06T10:06:06;17.52;;;7.45;;
71558;SDS011;59382;43.852;25.952;2024-01-06T10:08:34;8.82;;;5.65;;
71558;SDS011;59382;43.852;25.952;2024-01-06T10:11:00;7.75;;;5.10;;
71558;SDS011;59382;43.852;25.952;2024-01-06T10:13:26;13.95;;;6.43;;
71558;SDS011;59382;43.852;25.952;2024-01-06T10:15:54;10.98;;;6.93;;
71558;SDS011;59382;43.852;25.952;2024-01-06T10:18:20;13.57;;;6.88;;
71558;SDS011;59382;43.852;25.952;2024-01-06T10:20:46;9.82;;;6.13;;
71558;SDS011;59382;43.852;25.952;2024-01-06T10:23:12;10.13;;;5.88;;
71558;SDS011;59382;43.852;25.952;2024-01-06T10:25:38;7.82;;;5.25;;
71558;SDS011;59382;43.852;25.952;2024-01-06T10:28:06;10.15;;;5.63;;
71558;SDS011;59382;43.852;25.952;2024-01-06T10:30:32;10.88;;;7.07;;
71558;SDS011;59382;43.852;25.952;2024-01-06T10:32:57;14.50;;;6.82;;
71558;SDS011;59382;43.852;25.952;2024-01-06T10:35:24;19.55;;;11.68;;
71558;SDS011;59382;43.852;25.952;2024-01-06T10:37:51;17.90;;;6.28;;
71558;SDS011;59382;43.852;25.952;2024-01-06T10:40:17;8.15;;;5.45;;
71558;SDS011;59382;43.852;25.952;2024-01-06T10:42:42;11.30;;;6.85;;
71558;SDS011;59382;43.852;25.952;2024-01-06T10:45:09;10.35;;;6.18;;
71558;SDS011;59382;43.852;25.952;2024-01-06T10:47:37;12.57;;;5.80;;
71558;SDS011;59382;43.852;25.952;2024-01-06T10:50:04;10.27;;;6.32;;
71558;SDS011;59382;43.852;25.952;2024-01-06T10:52:30;19.52;;;6.82;;
71558;SDS011;59382;43.852;25.952;2024-01-06T10:54:58;16.27;;;7.57;;
71558;SDS011;59382;43.852;25.952;2024-01-06T10:57:24;10.30;;;6.78;;
71558;SDS011;59382;43.852;25.952;2024-01-06T10:59:50;10.95;;;7.45;;
71558;SDS011;59382;43.852;25.952;2024-01-06T11:02:17;10.13;;;6.50;;
71558;SDS011;59382;43.852;25.952;2024-01-06T11:04:44;10.27;;;5.95;;
71558;SDS011;59382;43.852;25.952;2024-01-06T11:07:17;9.32;;;6.18;;
71558;SDS011;59382;43.852;25.952;2024-01-06T11:10:29;7.32;;;5.88;;
71558;SDS011;59382;43.852;25.952;2024-01-06T11:12:33;11.57;;;5.93;;
71558;SDS011;59382;43.852;25.952;2024-01-06T11:14:59;14.63;;;6.55;;
71558;SDS011;59382;43.852;25.952;2024-01-06T11:20:25;9.80;;;6.00;;
71558;SDS011;59382;43.852;25.952;2024-01-06T11:22:51;8.73;;;5.65;;
71558;SDS011;59382;43.852;25.952;2024-01-06T11:25:18;9.50;;;5.97;;
71558;SDS011;59382;43.852;25.952;2024-01-06T11:27:45;14.57;;;6.70;;
71558;SDS011;59382;43.852;25.952;2024-01-06T11:30:19;10.23;;;6.13;;
71558;SDS011;59382;43.852;25.952;2024-01-06T11:32:44;10.68;;;6.20;;
71558;SDS011;59382;43.852;25.952;2024-01-06T11:35:12;8.05;;;6.13;;
71558;SDS011;59382;43.852;25.952;2024-01-06T11:42:33;17.52;;;9.20;;
71558;SDS011;59382;43.852;25.952;2024-01-06T11:45:04;13.77;;;8.45;;
71558;SDS011;59382;43.852;25.952;2024-01-06T11:47:33;19.48;;;8.90;;
71558;SDS011;59382;43.852;25.952;2024-01-06T11:50:02;18.33;;;8.57;;
71558;SDS011;59382;43.852;25.952;2024-01-06T11:52:31;14.73;;;8.85;;
71558;SDS011;59382;43.852;25.952;2024-01-06T11:54:57;17.83;;;10.52;;
71558;SDS011;59382;43.852;25.952;2024-01-06T11:57:25;26.05;;;11.90;;
71558;SDS011;59382;43.852;25.952;2024-01-06T11:59:52;20.92;;;12.00;;
71558;SDS011;59382;43.852;25.952;2024-01-06T12:02:18;19.02;;;11.15;;
71558;SDS011;59382;43.852;25.952;2024-01-06T12:04:51;17.05;;;10.00;;
71558;SDS011;59382;43.852;25.952;2024-01-06T12:07:18;18.35;;;11.07;;
71558;SDS011;59382;43.852;25.952;2024-01-06T12:09:46;27.42;;;11.30;;
71558;SDS011;59382;43.852;25.952;2024-01-06T12:12:15;22.75;;;11.35;;
71558;SDS011;59382;43.852;25.952;2024-01-06T12:14:41;24.20;;;12.18;;
71558;SDS011;59382;43.852;25.952;2024-01-06T12:17:07;19.58;;;12.25;;
71558;SDS011;59382;43.852;25.952;2024-01-06T12:19:33;25.75;;;11.88;;
71558;SDS011;59382;43.852;25.952;2024-01-06T12:21:59;20.45;;;12.23;;
71558;SDS011;59382;43.852;25.952;2024-01-06T12:24:26;27.13;;;13.50;;
71558;SDS011;59382;43.852;25.952;2024-01-06T12:26:54;23.63;;;13.10;;
71558;SDS011;59382;43.852;25.952;2024-01-06T12:29:21;18.48;;;11.45;;
71558;SDS011;59382;43.852;25.952;2024-01-06T12:31:47;20.73;;;11.52;;
71558;SDS011;59382;43.852;25.952;2024-01-06T12:34:13;25.83;;;12.68;;
71558;SDS011;59382;43.852;25.952;2024-01-06T12:36:39;23.98;;;12.13;;
71558;SDS011;59382;43.852;25.952;2024-01-06T12:39:06;28.60;;;12.02;;
71558;SDS011;59382;43.852;25.952;2024-01-06T12:41:38;20.95;;;10.85;;
71558;SDS011;59382;43.852;25.952;2024-01-06T12:44:07;17.42;;;11.38;;
71558;SDS011;59382;43.852;25.952;2024-01-06T12:46:34;25.73;;;13.27;;
71558;SDS011;59382;43.852;25.952;2024-01-06T12:48:59;23.25;;;11.65;;
71558;SDS011;59382;43.852;25.952;2024-01-06T12:51:25;15.68;;;10.55;;
71558;SDS011;59382;43.852;25.952;2024-01-06T12:53:50;19.75;;;11.57;;
71558;SDS011;59382;43.852;25.952;2024-01-06T12:56:16;21.70;;;11.93;;
71558;SDS011;59382;43.852;25.952;2024-01-06T12:58:42;22.40;;;11.55;;
71558;SDS011;59382;43.852;25.952;2024-01-06T13:01:09;17.67;;;11.85;;
71558;SDS011;59382;43.852;25.952;2024-01-06T13:03:34;20.92;;;12.65;;
71558;SDS011;59382;43.852;25.952;2024-01-06T13:06:00;19.73;;;12.68;;
71558;SDS011;59382;43.852;25.952;2024-01-06T13:08:26;22.52;;;13.30;;
71558;SDS011;59382;43.852;25.952;2024-01-06T13:10:53;20.63;;;11.63;;
71558;SDS011;59382;43.852;25.952;2024-01-06T13:13:19;17.95;;;11.45;;
71558;SDS011;59382;43.852;25.952;2024-01-06T13:15:44;20.58;;;11.15;;
71558;SDS011;59382;43.852;25.952;2024-01-06T13:18:11;17.65;;;10.80;;
71558;SDS011;59382;43.852;25.952;2024-01-06T13:20:37;20.27;;;12.77;;
71558;SDS011;59382;43.852;25.952;2024-01-06T13:23:05;23.98;;;12.10;;
71558;SDS011;59382;43.852;25.952;2024-01-06T13:25:32;20.77;;;12.43;;
71558;SDS011;59382;43.852;25.952;2024-01-06T13:27:58;21.02;;;13.30;;
71558;SDS011;59382;43.852;25.952;2024-01-06T13:30:24;24.02;;;14.15;;
71558;SDS011;59382;43.852;25.952;2024-01-06T13:32:51;20.42;;;13.07;;
71558;SDS011;59382;43.852;25.952;2024-01-06T13:35:19;26.17;;;12.70;;
71558;SDS011;59382;43.852;25.952;2024-01-06T13:37:46;26.63;;;12.93;;
71558;SDS011;59382;43.852;25.952;2024-01-06T13:40:13;21.73;;;11.82;;
71558;SDS011;59382;43.852;25.952;2024-01-06T13:42:39;19.38;;;11.27;;
71558;SDS011;59382;43.852;25.952;2024-01-06T13:45:05;19.50;;;10.43;;
71558;SDS011;59382;43.852;25.952;2024-01-06T13:47:31;22.50;;;11.50;;
71558;SDS011;59382;43.852;25.952;2024-01-06T13:49:57;19.13;;;10.63;;
71558;SDS011;59382;43.852;25.952;2024-01-06T13:52:23;25.35;;;12.68;;
71558;SDS011;59382;43.852;25.952;2024-01-06T13:54:49;24.50;;;11.75;;
71558;SDS011;59382;43.852;25.952;2024-01-06T13:57:14;18.77;;;10.55;;
71558;SDS011;59382;43.852;25.952;2024-01-06T13:59:40;18.80;;;9.65;;
71558;SDS011;59382;43.852;25.952;2024-01-06T14:02:08;20.92;;;10.25;;
71558;SDS011;59382;43.852;25.952;2024-01-06T14:04:34;19.45;;;10.52;;
71558;SDS011;59382;43.852;25.952;2024-01-06T14:07:00;18.88;;;10.38;;
71558;SDS011;59382;43.852;25.952;2024-01-06T14:09:27;20.80;;;10.90;;
71558;SDS011;59382;43.852;25.952;2024-01-06T14:11:55;20.48;;;11.00;;
71558;SDS011;59382;43.852;25.952;2024-01-06T14:14:21;27.92;;;11.50;;
71558;SDS011;59382;43.852;25.952;2024-01-06T14:16:46;16.50;;;9.93;;
71558;SDS011;59382;43.852;25.952;2024-01-06T14:19:12;20.33;;;9.95;;
71558;SDS011;59382;43.852;25.952;2024-01-06T14:21:39;16.50;;;9.65;;
71558;SDS011;59382;43.852;25.952;2024-01-06T14:24:05;22.33;;;9.98;;
71558;SDS011;59382;43.852;25.952;2024-01-06T14:26:31;20.25;;;11.02;;
71558;SDS011;59382;43.852;25.952;2024-01-06T14:28:57;18.02;;;9.82;;
71558;SDS011;59382;43.852;25.952;2024-01-06T14:31:23;17.83;;;10.32;;